createdAt,value
2023-05-06T00:01:44.330Z,14.08
2023-05-06T00:04:11.565Z,14.18
2023-05-06T00:06:38.735Z,14.02
2023-05-06T00:09:05.870Z,13.87
2023-05-06T00:11:33.037Z,13.94
2023-05-06T00:14:00.417Z,13.79
2023-05-06T00:16:27.740Z,14.00
2023-05-06T00:18:54.911Z,13.73
2023-05-06T00:21:22.075Z,13.26
2023-05-06T00:23:49.223Z,13.49
2023-05-06T00:26:16.484Z,13.51
2023-05-06T00:28:43.677Z,13.40
2023-05-06T00:31:10.860Z,13.75
2023-05-06T00:33:38.046Z,13.78
2023-05-06T00:36:05.389Z,13.35
2023-05-06T00:38:32.547Z,13.37
2023-05-06T00:40:59.693Z,13.28
2023-05-06T00:43:26.828Z,13.09
2023-05-06T00:45:54.566Z,13.26
2023-05-06T00:48:21.784Z,13.17
2023-05-06T00:50:49.339Z,12.80
2023-05-06T00:53:23.640Z,12.68
2023-05-06T00:55:51.305Z,12.95
2023-05-06T00:58:20.392Z,12.83
2023-05-06T01:00:48.240Z,12.93
2023-05-06T01:03:15.795Z,12.87
2023-05-06T01:06:17.969Z,12.75
2023-05-06T01:09:24.653Z,12.76
2023-05-06T01:12:29.328Z,12.97
2023-05-06T01:15:08.535Z,12.77
2023-05-06T01:17:42.604Z,12.89
2023-05-06T01:20:15.458Z,13.07
2023-05-06T01:22:43.124Z,13.40
2023-05-06T01:25:22.040Z,13.62
2023-05-06T01:27:50.402Z,13.78
2023-05-06T01:30:19.838Z,13.66
2023-05-06T01:33:08.852Z,13.40
2023-05-06T01:36:08.334Z,13.26
2023-05-06T01:38:52.256Z,13.02
2023-05-06T01:41:22.165Z,13.42
2023-05-06T01:43:50.111Z,13.13
2023-05-06T01:46:24.310Z,12.76
2023-05-06T01:48:56.439Z,12.99
2023-05-06T01:51:24.972Z,13.56
2023-05-06T01:53:52.115Z,13.56
2023-05-06T01:56:19.288Z,13.44
2023-05-06T01:58:46.416Z,13.52
2023-05-06T02:01:13.677Z,13.49
2023-05-06T02:03:40.922Z,13.42
2023-05-06T02:06:08.161Z,12.87
2023-05-06T02:08:35.619Z,12.77
2023-05-06T02:11:02.826Z,13.09
2023-05-06T02:13:30.048Z,12.97
2023-05-06T02:15:57.235Z,12.99
2023-05-06T02:18:25.396Z,13.09
2023-05-06T02:20:52.558Z,13.40
2023-05-06T02:23:19.843Z,13.27
2023-05-06T02:25:47.072Z,13.24
2023-05-06T02:28:14.287Z,12.57
2023-05-06T02:30:41.437Z,12.76
2023-05-06T02:33:08.636Z,13.15
2023-05-06T02:35:35.797Z,13.38
2023-05-06T02:38:02.986Z,12.90
2023-05-06T02:40:30.386Z,13.23
2023-05-06T02:42:57.575Z,12.98
2023-05-06T02:45:24.799Z,12.93
2023-05-06T02:47:52.020Z,12.98
2023-05-06T02:50:19.349Z,12.96
2023-05-06T02:52:46.505Z,12.75
2023-05-06T02:55:13.700Z,13.04
2023-05-06T02:57:40.845Z,12.74
2023-05-06T03:00:10.949Z,12.95
2023-05-06T03:02:38.387Z,13.01
2023-05-06T03:05:06.504Z,12.62
2023-05-06T03:07:36.126Z,12.73
2023-05-06T03:10:03.618Z,12.61
2023-05-06T03:12:30.809Z,12.72
2023-05-06T03:14:57.946Z,12.76
2023-05-06T03:17:25.279Z,13.20
2023-05-06T03:19:52.445Z,13.04
2023-05-06T03:22:19.861Z,13.10
2023-05-06T03:24:47.049Z,12.73
2023-05-06T03:27:14.285Z,12.97
2023-05-06T03:29:41.472Z,13.40
2023-05-06T03:32:08.609Z,13.25
2023-05-06T03:34:36.320Z,13.53
2023-05-06T03:37:03.880Z,13.46
2023-05-06T03:39:31.078Z,13.05
2023-05-06T03:41:58.261Z,12.67
2023-05-06T03:44:25.439Z,12.32
2023-05-06T03:46:52.586Z,12.39
2023-05-06T03:49:20.748Z,12.51
2023-05-06T03:51:48.358Z,12.70
2023-05-06T03:54:15.649Z,12.95
2023-05-06T03:56:42.841Z,12.69
2023-05-06T03:59:10.041Z,12.80
2023-05-06T04:01:37.214Z,12.99
2023-05-06T04:04:04.739Z,12.57
2023-05-06T04:06:32.016Z,13.14
2023-05-06T04:08:59.165Z,13.19
2023-05-06T04:11:27.447Z,12.88
2023-05-06T04:13:55.683Z,12.84
2023-05-06T04:16:23.266Z,12.41
2023-05-06T04:18:51.722Z,12.83
2023-05-06T04:21:19.002Z,12.36
2023-05-06T04:23:46.174Z,12.53
2023-05-06T04:26:13.348Z,12.30
2023-05-06T04:28:40.801Z,12.29
2023-05-06T04:31:08.565Z,12.07
2023-05-06T04:33:35.879Z,12.45
2023-05-06T04:36:03.541Z,12.76
2023-05-06T04:38:32.041Z,12.72
2023-05-06T04:40:59.561Z,12.92
2023-05-06T04:43:29.694Z,12.60
2023-05-06T04:45:57.248Z,12.74
2023-05-06T04:48:24.540Z,12.77
2023-05-06T04:50:51.729Z,12.40
2023-05-06T04:53:18.896Z,12.35
2023-05-06T04:55:46.053Z,12.23
2023-05-06T04:58:13.354Z,12.43
2023-05-06T05:00:40.595Z,12.47
2023-05-06T05:03:07.893Z,12.41
2023-05-06T05:05:35.252Z,12.51
2023-05-06T05:08:02.394Z,12.58
2023-05-06T05:10:29.629Z,12.63
2023-05-06T05:12:56.961Z,12.12
2023-05-06T05:15:24.249Z,12.35
2023-05-06T05:17:51.507Z,12.52
2023-05-06T05:20:18.704Z,12.28
2023-05-06T05:22:45.857Z,12.44
2023-05-06T05:25:13.326Z,12.45
2023-05-06T05:27:42.401Z,12.42
2023-05-06T05:30:10.061Z,12.41
2023-05-06T05:32:37.254Z,12.29
2023-05-06T05:35:05.309Z,12.15
2023-05-06T05:37:32.685Z,12.07
2023-05-06T05:39:59.853Z,12.37
2023-05-06T05:42:27.782Z,12.37
2023-05-06T05:44:54.927Z,12.41
2023-05-06T05:47:22.142Z,12.45
2023-05-06T05:49:49.284Z,12.39
2023-05-06T05:52:16.500Z,12.66
2023-05-06T05:54:43.698Z,12.29
2023-05-06T05:57:10.971Z,12.28
2023-05-06T05:59:39.264Z,12.35
2023-05-06T06:02:06.624Z,12.82
2023-05-06T06:04:33.845Z,12.61
2023-05-06T06:07:04.063Z,12.46
2023-05-06T06:09:31.226Z,12.46
2023-05-06T06:11:58.363Z,12.49
2023-05-06T06:14:25.542Z,12.43
2023-05-06T06:16:52.726Z,12.31
2023-05-06T06:19:20.372Z,12.43
2023-05-06T06:21:47.609Z,12.72
2023-05-06T06:24:14.767Z,12.98
2023-05-06T06:26:41.950Z,13.06
2023-05-06T06:29:09.102Z,12.85
2023-05-06T06:31:38.292Z,12.39
2023-05-06T06:34:08.883Z,12.54
2023-05-06T06:36:36.085Z,12.77
2023-05-06T06:39:03.424Z,12.75
2023-05-06T06:41:30.591Z,12.46
2023-05-06T06:43:57.747Z,12.96
2023-05-06T06:46:25.296Z,13.16
2023-05-06T06:48:52.506Z,12.52
2023-05-06T06:51:19.713Z,12.71
2023-05-06T06:53:48.945Z,12.57
2023-05-06T06:56:16.214Z,12.79
2023-05-06T06:58:43.648Z,12.82
2023-05-06T07:01:11.233Z,13.01
2023-05-06T07:03:38.557Z,13.05
2023-05-06T07:06:05.793Z,12.74
2023-05-06T07:08:32.953Z,12.85
2023-05-06T07:11:00.154Z,13.33
2023-05-06T07:13:27.331Z,12.84
2023-05-06T07:15:54.453Z,13.44
2023-05-06T07:18:21.612Z,13.23
2023-05-06T07:20:48.798Z,13.42
2023-05-06T07:23:15.955Z,13.54
2023-05-06T07:25:43.109Z,13.65
2023-05-06T07:28:10.264Z,13.60
2023-05-06T07:30:38.836Z,13.62
2023-05-06T07:33:06.157Z,13.68
2023-05-06T07:35:33.577Z,13.40
2023-05-06T07:38:00.882Z,13.46
2023-05-06T07:40:28.032Z,13.56
2023-05-06T07:42:55.659Z,13.76
2023-05-06T07:45:24.300Z,13.80
2023-05-06T07:47:51.616Z,13.84
2023-05-06T07:50:18.847Z,13.95
2023-05-06T07:52:46.084Z,13.94
2023-05-06T07:55:13.539Z,14.00
2023-05-06T07:57:41.968Z,14.10
2023-05-06T08:00:10.093Z,13.97
2023-05-06T08:02:38.674Z,14.03
2023-05-06T08:05:08.883Z,13.80
2023-05-06T08:07:36.443Z,13.99
2023-05-06T08:10:04.789Z,14.28
2023-05-06T08:12:32.253Z,14.32
2023-05-06T08:14:59.377Z,14.26
2023-05-06T08:17:26.581Z,14.24
2023-05-06T08:19:53.740Z,14.14
2023-05-06T08:22:20.959Z,14.44
2023-05-06T08:24:48.099Z,14.65
2023-05-06T08:27:15.344Z,14.60
2023-05-06T08:29:42.507Z,14.67
2023-05-06T08:32:09.787Z,14.62
2023-05-06T08:34:36.982Z,14.61
2023-05-06T08:37:04.306Z,14.64
2023-05-06T08:39:32.100Z,14.61
2023-05-06T08:42:01.984Z,14.59
2023-05-06T08:44:29.415Z,14.87
2023-05-06T08:46:56.650Z,14.71
2023-05-06T08:49:23.842Z,15.08
2023-05-06T08:51:54.801Z,14.99
2023-05-06T08:54:26.466Z,14.97
2023-05-06T08:56:57.543Z,15.06
2023-05-06T08:59:26.990Z,15.02
2023-05-06T09:01:54.148Z,15.16
2023-05-06T09:04:21.856Z,16.18
2023-05-06T09:06:49.043Z,17.86
2023-05-06T09:09:16.419Z,18.61
2023-05-06T09:11:43.594Z,19.36
2023-05-06T09:14:16.732Z,17.96
2023-05-06T09:16:47.568Z,16.70
2023-05-06T09:19:16.583Z,16.41
2023-05-06T09:21:48.051Z,16.28
2023-05-06T09:24:16.926Z,16.00
2023-05-06T09:26:46.788Z,16.13
2023-05-06T09:29:14.263Z,16.07
2023-05-06T09:31:47.656Z,16.39
2023-05-06T09:34:17.339Z,16.15
2023-05-06T09:36:44.664Z,16.28
2023-05-06T09:39:11.799Z,15.90
2023-05-06T09:41:39.068Z,15.77
2023-05-06T09:44:06.365Z,15.88
2023-05-06T09:46:34.411Z,15.53
2023-05-06T09:49:03.807Z,15.84
2023-05-06T09:51:31.118Z,15.96
2023-05-06T09:54:00.717Z,15.85
2023-05-06T09:56:30.432Z,15.90
2023-05-06T09:59:01.204Z,16.23
2023-05-06T10:01:36.523Z,16.05
2023-05-06T10:04:09.433Z,16.19
2023-05-06T10:06:40.490Z,16.29
2023-05-06T10:09:11.389Z,16.76
2023-05-06T10:11:39.043Z,17.26
2023-05-06T10:14:07.698Z,16.73
2023-05-06T10:16:37.029Z,16.83
2023-05-06T10:19:07.936Z,17.08
2023-05-06T10:21:45.090Z,17.68
2023-05-06T10:24:19.027Z,18.94
2023-05-06T10:26:49.190Z,19.07
2023-05-06T10:29:17.564Z,18.31
2023-05-06T10:31:53.972Z,18.22
2023-05-06T10:34:24.083Z,17.94
2023-05-06T10:36:57.611Z,18.01
2023-05-06T10:39:26.401Z,17.53
2023-05-06T10:41:53.654Z,18.07
2023-05-06T10:45:04.517Z,17.30
2023-05-06T10:48:03.399Z,16.97
2023-05-06T10:50:30.516Z,16.69
2023-05-06T10:52:59.193Z,16.54
2023-05-06T10:55:37.662Z,16.54
2023-05-06T10:58:19.116Z,16.57
2023-05-06T11:00:57.994Z,16.65
2023-05-06T11:03:26.236Z,16.76
2023-05-06T11:05:53.487Z,16.69
2023-05-06T11:08:26.297Z,16.76
2023-05-06T11:10:54.248Z,16.71
2023-05-06T11:13:27.364Z,16.34
2023-05-06T11:15:57.050Z,16.77
2023-05-06T11:18:24.228Z,17.56
2023-05-06T11:21:12.599Z,18.07
2023-05-06T11:23:42.725Z,18.28
2023-05-06T11:26:11.664Z,17.05
2023-05-06T11:28:42.893Z,17.17
2023-05-06T11:31:10.436Z,17.40
2023-05-06T11:33:37.842Z,17.06
2023-05-06T11:36:06.515Z,16.85
2023-05-06T11:38:52.307Z,17.08
2023-05-06T11:41:21.001Z,17.30
2023-05-06T11:43:52.785Z,17.45
2023-05-06T11:46:23.698Z,17.65
2023-05-06T11:48:50.992Z,17.76
2023-05-06T11:51:22.785Z,18.42
2023-05-06T11:53:49.964Z,18.21
2023-05-06T11:56:17.118Z,17.71
2023-05-06T11:58:46.348Z,17.68
2023-05-06T12:01:13.797Z,18.36
2023-05-06T12:03:41.159Z,18.85
2023-05-06T12:06:08.425Z,18.10
2023-05-06T12:08:37.435Z,18.21
2023-05-06T12:11:08.918Z,17.54
2023-05-06T12:13:37.602Z,17.45
2023-05-06T12:16:07.715Z,17.87
2023-05-06T12:18:35.077Z,17.98
2023-05-06T12:21:03.299Z,17.76
2023-05-06T12:23:30.521Z,17.66
2023-05-06T12:26:06.517Z,17.67
2023-05-06T12:28:36.890Z,18.00
2023-05-06T12:31:24.101Z,17.81
2023-05-06T12:33:51.599Z,17.48
2023-05-06T12:36:19.430Z,17.93
2023-05-06T12:38:57.330Z,17.89
2023-05-06T12:41:36.778Z,17.76
2023-05-06T12:44:25.258Z,18.51
2023-05-06T12:46:52.897Z,18.53
2023-05-06T12:49:20.314Z,18.65
2023-05-06T12:51:47.825Z,18.81
2023-05-06T12:54:31.410Z,18.32
2023-05-06T12:56:58.658Z,17.71
2023-05-06T12:59:26.706Z,17.85
2023-05-06T13:01:54.097Z,17.86
2023-05-06T13:04:22.502Z,17.44
2023-05-06T13:06:51.381Z,17.38
2023-05-06T13:09:18.673Z,17.95
2023-05-06T13:11:45.929Z,17.96
2023-05-06T13:14:13.628Z,18.09
2023-05-06T13:16:42.212Z,18.45
2023-05-06T13:19:21.241Z,18.78
2023-05-06T13:21:58.860Z,18.69
2023-05-06T13:24:26.236Z,18.77
2023-05-06T13:26:53.419Z,18.54
2023-05-06T13:29:20.644Z,18.78
2023-05-06T13:31:47.779Z,19.15
2023-05-06T13:34:14.921Z,18.74
2023-05-06T13:36:43.702Z,18.18
2023-05-06T13:39:10.910Z,17.74
2023-05-06T13:41:38.101Z,17.65
2023-05-06T13:44:06.269Z,17.62
2023-05-06T13:46:33.644Z,17.78
2023-05-06T13:49:00.870Z,17.30
2023-05-06T13:51:30.517Z,17.41
2023-05-06T13:53:57.805Z,17.46
2023-05-06T13:56:25.067Z,17.72
2023-05-06T13:58:53.275Z,17.32
2023-05-06T14:01:21.783Z,17.73
2023-05-06T14:03:49.366Z,18.15
2023-05-06T14:06:17.009Z,18.16
2023-05-06T14:08:45.212Z,18.22
2023-05-06T14:11:12.408Z,17.48
2023-05-06T14:13:40.761Z,17.27
2023-05-06T14:16:08.036Z,17.34
2023-05-06T14:18:35.343Z,17.27
2023-05-06T14:21:03.427Z,17.09
2023-05-06T14:23:30.700Z,17.19
2023-05-06T14:25:57.957Z,16.95
2023-05-06T14:28:25.119Z,16.73
2023-05-06T14:30:53.136Z,16.73
2023-05-06T14:33:20.296Z,16.77
2023-05-06T14:35:48.045Z,16.86
2023-05-06T14:38:16.161Z,17.42
2023-05-06T14:40:43.296Z,17.51
2023-05-06T14:43:10.440Z,17.50
2023-05-06T14:45:37.679Z,17.28
2023-05-06T14:48:05.443Z,17.34
2023-05-06T14:50:32.676Z,17.83
2023-05-06T14:53:01.013Z,17.19
2023-05-06T14:55:29.412Z,17.38
2023-05-06T14:57:57.136Z,17.22
2023-05-06T15:00:24.491Z,16.87
2023-05-06T15:02:51.730Z,16.72
2023-05-06T15:05:18.974Z,16.84
2023-05-06T15:07:46.318Z,17.25
2023-05-06T15:10:13.632Z,17.02
2023-05-06T15:12:40.825Z,16.80
2023-05-06T15:15:09.029Z,16.67
2023-05-06T15:17:36.366Z,16.51
2023-05-06T15:20:04.472Z,16.74
2023-05-06T15:22:31.637Z,16.96
2023-05-06T15:24:58.778Z,16.64
2023-05-06T15:27:25.969Z,16.34
2023-05-06T15:29:53.087Z,16.21
2023-05-06T15:32:20.292Z,16.07
2023-05-06T15:34:47.436Z,15.80
2023-05-06T15:37:19.058Z,15.67
2023-05-06T15:39:47.731Z,15.53
2023-05-06T15:42:16.889Z,16.03
2023-05-06T15:44:44.023Z,15.25
2023-05-06T15:47:11.209Z,15.57
2023-05-06T15:52:08.709Z,15.23
2023-05-06T15:54:38.644Z,15.20
2023-05-06T15:57:07.122Z,15.54
2023-05-06T15:59:34.531Z,15.01
2023-05-06T16:02:26.263Z,14.50
2023-05-06T16:04:48.963Z,14.68
2023-05-06T16:07:16.628Z,14.37
2023-05-06T16:09:44.182Z,14.04
2023-05-06T16:12:11.343Z,14.30
2023-05-06T16:14:38.489Z,14.15
2023-05-06T16:17:05.859Z,13.89
2023-05-06T16:19:34.879Z,14.28
2023-05-06T16:22:02.494Z,14.26
2023-05-06T16:24:29.673Z,14.55
2023-05-06T16:26:56.832Z,13.92
2023-05-06T16:29:24.045Z,14.25
2023-05-06T16:31:51.432Z,14.30
2023-05-06T16:34:18.617Z,14.08
2023-05-06T16:36:45.941Z,13.75
2023-05-06T16:39:13.163Z,13.77
2023-05-06T16:41:40.377Z,13.74
2023-05-06T16:44:07.509Z,13.45
2023-05-06T16:46:35.242Z,13.28
2023-05-06T16:49:03.772Z,13.48
2023-05-06T16:51:31.983Z,13.60
2023-05-06T16:53:59.112Z,13.99
2023-05-06T16:56:32.847Z,13.47
2023-05-06T16:59:07.544Z,13.37
2023-05-06T17:01:34.681Z,13.02
2023-05-06T17:04:01.828Z,13.05
2023-05-06T17:06:31.226Z,12.86
2023-05-06T17:08:58.956Z,12.97
2023-05-06T17:11:26.096Z,12.92
2023-05-06T17:13:54.204Z,13.36
2023-05-06T17:16:21.709Z,13.28
2023-05-06T17:18:48.963Z,13.16
2023-05-06T17:21:16.354Z,12.94
2023-05-06T17:23:44.149Z,13.19
2023-05-06T17:26:11.324Z,12.95
2023-05-06T17:28:38.772Z,12.87
2023-05-06T17:31:06.007Z,12.84
2023-05-06T17:33:33.256Z,12.74
2023-05-06T17:36:00.428Z,12.64
2023-05-06T17:38:27.619Z,12.42
2023-05-06T17:40:54.805Z,12.47
2023-05-06T17:43:21.990Z,12.47
2023-05-06T17:45:49.291Z,12.58
2023-05-06T17:48:16.570Z,12.60
2023-05-06T17:50:43.705Z,12.70
2023-05-06T17:53:10.884Z,12.67
2023-05-06T17:55:38.066Z,12.57
2023-05-06T17:58:05.350Z,12.53
2023-05-06T18:00:32.582Z,12.12
2023-05-06T18:03:00.015Z,12.44
2023-05-06T18:05:27.761Z,12.58
2023-05-06T18:07:54.980Z,12.63
2023-05-06T18:10:22.332Z,12.27
2023-05-06T18:12:49.936Z,12.57
2023-05-06T18:15:17.191Z,12.19
2023-05-06T18:17:45.799Z,11.97
2023-05-06T18:20:13.449Z,11.85
2023-05-06T18:22:42.790Z,12.08
2023-05-06T18:25:10.414Z,12.37
2023-05-06T18:27:37.779Z,12.01
2023-05-06T18:30:06.506Z,12.01
2023-05-06T18:32:35.040Z,12.44
2023-05-06T18:35:02.386Z,11.83
2023-05-06T18:37:29.672Z,11.72
2023-05-06T18:39:56.842Z,11.45
2023-05-06T18:42:24.027Z,11.92
2023-05-06T18:44:51.289Z,11.61
2023-05-06T18:47:19.686Z,11.42
2023-05-06T18:49:46.928Z,11.44
2023-05-06T18:52:15.246Z,11.50
2023-05-06T18:54:42.445Z,11.30
2023-05-06T18:57:10.481Z,11.50
2023-05-06T18:59:39.244Z,11.49
2023-05-06T19:02:07.989Z,11.54
2023-05-06T19:04:35.931Z,11.37
2023-05-06T19:07:03.641Z,11.31
2023-05-06T19:09:32.816Z,11.45
2023-05-06T19:12:00.144Z,11.19
2023-05-06T19:14:27.430Z,11.06
2023-05-06T19:16:54.689Z,11.44
2023-05-06T19:19:21.874Z,11.37
2023-05-06T19:21:49.100Z,11.41
2023-05-06T19:24:16.441Z,11.11
2023-05-06T19:26:44.883Z,11.24
2023-05-06T19:29:12.368Z,11.70
2023-05-06T19:31:39.600Z,11.86
2023-05-06T19:34:06.871Z,11.32
2023-05-06T19:36:34.204Z,11.60
2023-05-06T19:39:01.379Z,11.58
2023-05-06T19:41:28.717Z,11.48
2023-05-06T19:43:56.007Z,11.21
2023-05-06T19:46:23.274Z,11.26
2023-05-06T19:48:50.680Z,11.52
2023-05-06T19:51:17.863Z,11.38
2023-05-06T19:53:45.225Z,11.20
2023-05-06T19:56:14.285Z,11.41
2023-05-06T19:58:41.452Z,11.09
2023-05-06T20:01:09.199Z,11.70
2023-05-06T20:03:36.597Z,11.37
2023-05-06T20:06:04.232Z,11.46
2023-05-06T20:08:31.480Z,11.57
2023-05-06T20:10:58.681Z,11.22
2023-05-06T20:13:26.134Z,11.20
2023-05-06T20:15:55.127Z,11.30
2023-05-06T20:18:22.822Z,11.25
2023-05-06T20:20:50.019Z,11.19
2023-05-06T20:23:17.244Z,11.00
2023-05-06T20:25:44.414Z,11.10
2023-05-06T20:28:11.893Z,11.45
2023-05-06T20:30:39.157Z,11.12
2023-05-06T20:33:06.402Z,11.18
2023-05-06T20:35:37.992Z,11.46
2023-05-06T20:38:06.032Z,11.03
2023-05-06T20:40:35.536Z,10.99
2023-05-06T20:43:03.070Z,11.21
2023-05-06T20:45:32.374Z,10.94
2023-05-06T20:47:59.583Z,11.20
2023-05-06T20:50:29.390Z,10.95
2023-05-06T20:52:57.014Z,10.69
2023-05-06T20:55:25.710Z,10.69
2023-05-06T20:57:52.989Z,10.97
2023-05-06T21:00:21.236Z,10.85
2023-05-06T21:02:48.497Z,10.38
2023-05-06T21:05:16.274Z,10.85
2023-05-06T21:07:43.463Z,10.84
2023-05-06T21:10:11.144Z,10.97
2023-05-06T21:12:38.804Z,10.43
2023-05-06T21:15:06.896Z,10.84
2023-05-06T21:17:34.189Z,10.75
2023-05-06T21:20:02.366Z,10.79
2023-05-06T21:22:30.961Z,10.76
2023-05-06T21:24:58.236Z,10.57
2023-05-06T21:27:25.601Z,10.54
2023-05-06T21:29:52.881Z,10.72
2023-05-06T21:32:20.104Z,10.92
2023-05-06T21:34:47.300Z,10.65
2023-05-06T21:37:14.583Z,10.96
2023-05-06T21:39:41.754Z,10.39
2023-05-06T21:42:09.075Z,10.74
2023-05-06T21:44:36.242Z,10.28
2023-05-06T21:47:03.762Z,10.63
2023-05-06T21:49:31.013Z,10.11
2023-05-06T21:51:58.231Z,10.68
2023-05-06T21:54:25.457Z,10.60
2023-05-06T21:56:52.657Z,10.65
2023-05-06T21:59:19.955Z,10.47
2023-05-06T22:01:47.277Z,10.49
2023-05-06T22:04:16.695Z,10.57
2023-05-06T22:06:44.095Z,10.41
2023-05-06T22:09:11.924Z,10.72
2023-05-06T22:11:39.105Z,10.24
2023-05-06T22:14:06.581Z,10.28
2023-05-06T22:16:35.403Z,10.28
2023-05-06T22:19:03.954Z,10.18
2023-05-06T22:21:32.197Z,10.17
2023-05-06T22:23:59.993Z,9.98
2023-05-06T22:26:32.738Z,10.17
2023-05-06T22:28:59.924Z,10.29
2023-05-06T22:31:27.187Z,10.31
2023-05-06T22:33:58.145Z,10.37
2023-05-06T22:36:28.991Z,10.29
2023-05-06T22:38:56.277Z,10.38
2023-05-06T22:41:23.549Z,10.47
2023-05-06T22:43:50.901Z,10.54
2023-05-06T22:46:18.995Z,10.20
2023-05-06T22:48:46.323Z,10.24
2023-05-06T22:51:15.966Z,10.09
2023-05-06T22:53:43.367Z,10.04
2023-05-06T22:56:11.214Z,10.40
2023-05-06T22:58:38.497Z,10.15
2023-05-06T23:01:07.287Z,10.06
2023-05-06T23:03:36.129Z,10.08
2023-05-06T23:06:04.456Z,10.02
2023-05-06T23:08:31.803Z,10.27
2023-05-06T23:10:58.993Z,10.18
2023-05-06T23:13:26.545Z,10.23
2023-05-06T23:15:54.180Z,10.16
2023-05-06T23:18:21.390Z,10.61
2023-05-06T23:20:48.743Z,10.07
2023-05-06T23:23:15.940Z,9.97
2023-05-06T23:25:43.123Z,10.30
2023-05-06T23:28:10.355Z,10.23
2023-05-06T23:30:37.606Z,10.32
2023-05-06T23:33:04.871Z,9.99
2023-05-06T23:35:32.498Z,10.17
2023-05-06T23:37:59.711Z,10.18
2023-05-06T23:40:26.919Z,10.30
2023-05-06T23:42:54.108Z,10.36
2023-05-06T23:45:21.331Z,10.17
2023-05-06T23:47:48.592Z,10.14
2023-05-06T23:50:15.932Z,9.95
2023-05-06T23:52:43.146Z,10.17
2023-05-06T23:55:10.752Z,10.42
2023-05-06T23:57:38.126Z,10.08
